Time;durP1;ratioP1;P1;durP2;ratioP2;P2;SDS_P1;SDS_P2;PMS_P1;PMS_P2;Temp;Humidity;BMP_temperature;BMP_pressure;BME280_temperature;BME280_humidity;BME280_pressure;Samples;Min_cycle;Max_cycle;Signal;HPM_P1;HPM_P2
2023/07/18 00:01:31;;;;;;;20.00;15.20;;;;;;;25.35;65.24;100249.39;105275;1256;60621;-57
2023/07/18 00:03:58;;;;;;;17.90;16.20;;;;;;;25.37;65.67;100247.08;105196;1259;63621;-58
2023/07/18 00:06:26;;;;;;;16.40;14.90;;;;;;;25.43;65.92;100248.48;105188;1260;60410;-55
2023/07/18 00:08:54;;;;;;;17.80;16.10;;;;;;;25.43;65.81;100248.80;105356;1259;63876;-57
2023/07/18 00:11:22;;;;;;;16.10;14.60;;;;;;;25.42;65.80;100251.10;105303;1255;60571;-58
2023/07/18 00:13:50;;;;;;;17.90;16.00;;;;;;;25.39;65.84;100243.25;105415;1256;60387;-57
2023/07/18 00:16:17;;;;;;;16.00;14.10;;;;;;;25.37;65.80;100237.44;105308;1260;65749;-59
2023/07/18 00:18:45;;;;;;;16.50;14.80;;;;;;;25.35;65.89;100235.02;105344;1257;60512;-60
2023/07/18 00:21:14;;;;;;;17.40;14.70;;;;;;;25.32;65.85;100230.82;105386;1261;62511;-59
2023/07/18 00:23:42;;;;;;;16.10;14.60;;;;;;;25.27;65.95;100227.98;105188;1255;60540;-56
2023/07/18 00:26:09;;;;;;;16.50;14.90;;;;;;;25.23;65.99;100225.83;105245;1260;60404;-58
2023/07/18 00:28:37;;;;;;;16.60;14.40;;;;;;;25.21;66.08;100221.13;105181;1260;64851;-55
2023/07/18 00:31:05;;;;;;;17.10;15.30;;;;;;;25.21;66.10;100221.29;105289;1256;61688;-57
2023/07/18 00:33:33;;;;;;;16.00;14.40;;;;;;;25.19;66.08;100218.83;105210;1261;62527;-55
2023/07/18 00:36:00;;;;;;;15.70;14.10;;;;;;;25.18;66.16;100213.09;105312;1256;60527;-58
2023/07/18 00:38:28;;;;;;;17.10;14.60;;;;;;;25.15;66.16;100204.38;105268;1255;60392;-56
2023/07/18 00:40:56;;;;;;;15.10;13.60;;;;;;;25.13;66.25;100196.20;105355;1254;65472;-56
2023/07/18 00:43:24;;;;;;;15.90;14.40;;;;;;;25.10;66.23;100189.42;105932;1256;61845;-57
2023/07/18 00:45:52;;;;;;;15.30;13.70;;;;;;;25.08;66.20;100186.35;105318;1260;63753;-58
2023/07/18 00:48:20;;;;;;;14.70;13.20;;;;;;;25.08;66.18;100182.20;105309;1253;60477;-58
2023/07/18 00:50:47;;;;;;;16.40;14.50;;;;;;;25.08;66.24;100177.52;105240;1255;60595;-58
2023/07/18 00:53:15;;;;;;;15.10;13.70;;;;;;;25.09;66.37;100174.57;105189;1256;63655;-59
2023/07/18 00:55:43;;;;;;;15.90;14.40;;;;;;;25.08;66.53;100169.12;105251;1260;61564;-58
2023/07/18 00:58:10;;;;;;;16.00;14.30;;;;;;;25.08;66.48;100165.02;105206;1255;63775;-57
2023/07/18 01:00:38;;;;;;;15.80;14.30;;;;;;;25.08;66.37;100162.71;105104;1257;60592;-58
2023/07/18 01:03:09;;;;;;;15.30;13.80;;;;;;;25.06;66.28;100159.75;105540;1259;60214;-56
2023/07/18 01:05:39;;;;;;;16.60;13.50;;;;;;;25.06;66.45;100162.60;105256;1260;64925;-53
2023/07/18 01:08:06;;;;;;;15.10;13.70;;;;;;;25.07;66.59;100157.24;105228;1253;61408;-58
2023/07/18 01:10:34;;;;;;;15.80;13.70;;;;;;;25.10;66.72;100154.89;105200;1260;62443;-57
2023/07/18 01:13:02;;;;;;;14.80;13.40;;;;;;;25.09;66.92;100156.77;105328;1256;60527;-57
2023/07/18 01:15:31;;;;;;;15.90;14.30;;;;;;;25.06;67.11;100155.17;105352;1255;60653;-56
2023/07/18 01:18:02;;;;;;;15.50;14.10;;;;;;;25.04;67.16;100153.34;105645;1258;65081;-57
2023/07/18 01:20:29;;;;;;;14.60;13.10;;;;;;;25.03;67.22;100147.35;105415;1260;61282;-56
2023/07/18 01:23:00;;;;;;;14.30;12.70;;;;;;;25.04;67.09;100148.67;105241;1255;71388;-56
2023/07/18 01:25:28;;;;;;;15.10;12.90;;;;;;;25.06;67.12;100147.33;105204;1256;60490;-56
2023/07/18 01:27:56;;;;;;;11.20;9.90;;;;;;;25.09;66.92;100144.17;105229;1255;60643;-56
2023/07/18 01:30:24;;;;;;;12.30;11.10;;;;;;;25.11;66.67;100141.09;105299;1256;64943;-57
2023/07/18 01:32:52;;;;;;;15.00;11.90;;;;;;;25.09;66.59;100141.79;105426;1261;61620;-58
2023/07/18 01:35:23;;;;;;;13.50;12.20;;;;;;;25.03;66.48;100140.72;105810;1255;63870;-54
2023/07/18 01:37:51;;;;;;;13.50;12.10;;;;;;;24.99;66.38;100142.59;105286;1256;60620;-55
2023/07/18 01:40:20;;;;;;;13.80;12.30;;;;;;;24.99;66.28;100137.33;105352;1259;60452;-55
2023/07/18 01:42:51;;;;;;;13.50;12.20;;;;;;;24.98;65.93;100132.54;105215;1260;64866;-56
2023/07/18 01:45:20;;;;;;;14.50;13.10;;;;;;;24.97;65.74;100130.27;105125;1261;61441;-56
2023/07/18 01:47:48;;;;;;;13.60;12.30;;;;;;;24.97;65.49;100130.73;105376;1253;64294;-56
2023/07/18 01:50:16;;;;;;;15.30;13.60;;;;;;;24.95;65.45;100134.14;105334;1256;60567;-56
2023/07/18 01:52:44;;;;;;;15.20;13.60;;;;;;;24.95;65.25;100131.61;105264;1257;60564;-57
2023/07/18 01:55:12;;;;;;;14.10;12.60;;;;;;;24.95;64.97;100136.77;105206;1256;64885;-56
2023/07/18 01:57:40;;;;;;;17.20;13.80;;;;;;;24.95;64.61;100140.10;105311;1256;61368;-59
2023/07/18 02:00:12;;;;;;;16.90;13.70;;;;;;;24.94;64.20;100143.94;105209;1258;62482;-59
2023/07/18 02:02:40;;;;;;;14.90;13.00;;;;;;;24.89;63.85;100143.09;105852;1253;61165;-55
2023/07/18 02:05:08;;;;;;;15.00;13.40;;;;;;;24.83;63.70;100145.41;105268;1259;60789;-55
2023/07/18 02:07:36;;;;;;;15.50;14.00;;;;;;;24.80;63.56;100145.98;105938;1254;64940;-56
2023/07/18 02:10:04;;;;;;;15.50;13.90;;;;;;;24.75;63.62;100148.68;105233;1256;61286;-57
2023/07/18 02:12:32;;;;;;;15.40;13.80;;;;;;;24.73;63.78;100144.44;105447;1256;77200;-55
2023/07/18 02:15:05;;;;;;;13.30;11.90;;;;;;;24.72;63.69;100138.06;105401;1257;60558;-57
2023/07/18 02:17:34;;;;;;;13.30;11.90;;;;;;;24.73;63.68;100137.27;105239;1256;60425;-55
2023/07/18 02:20:05;;;;;;;14.20;12.60;;;;;;;24.73;63.76;100132.22;105325;1259;65195;-58
2023/07/18 02:22:34;;;;;;;15.80;14.10;;;;;;;24.72;63.78;100126.98;105351;1261;60463;-57
2023/07/18 02:25:02;;;;;;;16.30;13.40;;;;;;;24.70;63.68;100123.11;105385;1258;62601;-55
2023/07/18 02:27:32;;;;;;;14.40;12.90;;;;;;;24.68;63.47;100125.52;105331;1256;60826;-55
2023/07/18 02:30:01;;;;;;;13.80;12.40;;;;;;;24.67;63.28;100123.59;105738;1254;60468;-56
2023/07/18 02:32:30;;;;;;;13.20;12.00;;;;;;;24.69;63.16;100122.58;105483;1253;63621;-58
2023/07/18 02:34:58;;;;;;;13.70;12.30;;;;;;;24.71;62.98;100117.52;105240;1255;61391;-57
2023/07/18 02:37:25;;;;;;;14.60;13.20;;;;;;;24.70;62.92;100121.54;105348;1256;64384;-56
2023/07/18 02:39:53;;;;;;;14.80;12.50;;;;;;;24.68;63.07;100121.05;105269;1259;60445;-58
2023/07/18 02:42:21;;;;;;;14.60;13.20;;;;;;;24.68;63.01;100119.87;105541;1261;60462;-57
2023/07/18 02:44:48;;;;;;;13.60;12.20;;;;;;;24.68;62.90;100120.89;105195;1261;64914;-59
2023/07/18 02:47:16;;;;;;;14.20;12.70;;;;;;;24.69;62.74;100122.00;105385;1254;61812;-56
2023/07/18 02:49:44;;;;;;;13.40;12.10;;;;;;;24.70;62.53;100120.95;105048;1259;63724;-57
2023/07/18 02:52:11;;;;;;;12.90;11.60;;;;;;;24.73;62.19;100115.25;105230;1260;60442;-58
2023/07/18 02:54:39;;;;;;;17.50;11.90;;;;;;;24.74;61.79;100118.69;105091;1256;60541;-57
2023/07/18 02:57:06;;;;;;;16.20;12.20;;;;;;;24.72;62.06;100115.64;105203;1258;64931;-56
2023/07/18 02:59:34;;;;;;;14.00;12.60;;;;;;;24.72;62.04;100112.83;105202;1259;60391;-56
2023/07/18 03:02:02;;;;;;;12.90;11.30;;;;;;;24.71;62.07;100116.14;105505;1260;63751;-56
2023/07/18 03:04:30;;;;;;;13.70;11.90;;;;;;;24.74;62.24;100115.09;105197;1261;60439;-58
2023/07/18 03:06:59;;;;;;;12.60;10.60;;;;;;;24.77;62.05;100126.92;105254;1255;60600;-56
2023/07/18 03:09:27;;;;;;;13.20;11.30;;;;;;;24.78;61.33;100154.02;105361;1258;64943;-60
2023/07/18 03:11:54;;;;;;;14.70;11.50;;;;;;;24.74;60.51;100199.52;105348;1261;60549;-56
2023/07/18 03:14:22;;;;;;;11.90;10.70;;;;;;;24.68;60.02;100177.10;105169;1259;63711;-59
2023/07/18 03:16:51;;;;;;;13.70;11.00;;;;;;;24.63;59.56;100177.64;105369;1255;60861;-58
2023/07/18 03:19:19;;;;;;;12.20;10.50;;;;;;;24.56;59.11;100199.77;105296;1258;61598;-58
2023/07/18 03:21:46;;;;;;;14.10;12.70;;;;;;;24.46;59.10;100204.80;105149;1256;64910;-58
2023/07/18 03:24:14;;;;;;;12.60;11.30;;;;;;;24.39;59.31;100207.13;105034;1261;60436;-61
2023/07/18 03:26:41;;;;;;;15.00;12.10;;;;;;;24.33;59.49;100201.52;105258;1261;63833;-60
2023/07/18 03:29:09;;;;;;;13.00;11.20;;;;;;;24.32;59.40;100200.92;105757;1260;60536;-57
2023/07/18 03:31:39;;;;;;;14.90;11.40;;;;;;;24.33;59.56;100192.31;105391;1261;60871;-59
2023/07/18 03:34:07;;;;;;;14.50;11.70;;;;;;;24.35;59.71;100186.14;105285;1256;64929;-59
2023/07/18 03:36:35;;;;;;;13.50;11.90;;;;;;;24.40;59.76;100177.42;105313;1253;62370;-60
2023/07/18 03:39:05;;;;;;;13.70;11.40;;;;;;;24.45;59.94;100174.94;105350;1260;63559;-57
2023/07/18 03:41:33;;;;;;;14.70;12.90;;;;;;;24.48;59.84;100179.72;105251;1256;60674;-59
2023/07/18 03:44:01;;;;;;;13.90;11.40;;;;;;;24.51;59.97;100180.23;105511;1260;60378;-57
2023/07/18 03:46:38;;;;;;;15.40;12.40;;;;;;;24.53;60.04;100186.02;105313;1254;64980;-58
2023/07/18 03:49:16;;;;;;;14.80;12.50;;;;;;;24.51;60.25;100185.95;105042;1261;60580;-57
2023/07/18 03:51:44;;;;;;;13.90;12.50;;;;;;;24.46;60.53;100184.29;104952;1259;63764;-57
2023/07/18 03:54:12;;;;;;;14.00;12.50;;;;;;;24.41;60.82;100186.39;105231;1255;60532;-58
2023/07/18 03:56:40;;;;;;;14.90;13.40;;;;;;;24.35;61.10;100186.02;105304;1256;60466;-56
2023/07/18 03:59:08;;;;;;;17.90;13.50;;;;;;;24.30;61.30;100176.95;105396;1261;65492;-58
2023/07/18 04:01:35;;;;;;;13.70;12.30;;;;;;;24.31;61.69;100181.02;105400;1255;61513;-59
2023/07/18 04:04:03;;;;;;;14.60;13.10;;;;;;;24.33;61.63;100184.88;105331;1260;62651;-59
2023/07/18 04:06:32;;;;;;;16.60;12.80;;;;;;;24.36;61.68;100176.73;105270;1259;60515;-55
2023/07/18 04:09:00;;;;;;;17.40;13.00;;;;;;;24.39;61.72;100170.73;105309;1255;60566;-57
2023/07/18 04:11:27;;;;;;;15.00;13.40;;;;;;;24.43;61.70;100176.34;105362;1260;64965;-57
2023/07/18 04:13:55;;;;;;;14.30;12.80;;;;;;;24.44;61.65;100174.17;105418;1256;61397;-53
2023/07/18 04:16:23;;;;;;;16.40;12.80;;;;;;;24.45;61.59;100166.30;105357;1254;63633;-53
2023/07/18 04:18:53;;;;;;;13.90;12.30;;;;;;;24.52;61.67;100169.14;105309;1256;60484;-53
2023/07/18 04:21:21;;;;;;;15.30;12.90;;;;;;;24.65;61.39;100170.34;105236;1258;60451;-51
2023/07/18 04:23:48;;;;;;;18.40;13.50;;;;;;;24.75;61.19;100162.75;105099;1260;63646;-60
2023/07/18 04:26:17;;;;;;;15.00;12.50;;;;;;;24.85;60.81;100158.80;104996;1256;61404;-52
2023/07/18 04:28:44;;;;;;;15.50;13.10;;;;;;;24.95;60.46;100153.60;105337;1259;63748;-54
2023/07/18 04:31:13;;;;;;;14.40;12.80;;;;;;;25.04;60.04;100152.73;105385;1259;60545;-51
2023/07/18 04:33:43;;;;;;;13.80;12.20;;;;;;;25.09;59.51;100155.36;105312;1260;60354;-51
2023/07/18 04:36:10;;;;;;;14.40;12.40;;;;;;;25.13;59.45;100153.55;105202;1253;64923;-54
2023/07/18 04:38:38;;;;;;;13.30;10.60;;;;;;;25.17;59.13;100152.86;105174;1260;61678;-52
2023/07/18 04:41:05;;;;;;;14.30;11.20;;;;;;;25.20;58.74;100150.05;105347;1260;63716;-49
2023/07/18 04:43:33;;;;;;;11.00;9.70;;;;;;;25.22;58.29;100150.90;105875;1260;60510;-51
2023/07/18 04:46:01;;;;;;;12.00;9.10;;;;;;;25.22;57.80;100150.36;105375;1260;60382;-50
2023/07/18 04:48:29;;;;;;;9.90;8.30;;;;;;;25.20;57.37;100152.58;105141;1255;63720;-49
2023/07/18 04:50:58;;;;;;;9.60;8.30;;;;;;;25.18;57.17;100155.96;105119;1260;63243;-51
2023/07/18 04:53:26;;;;;;;11.20;7.40;;;;;;;25.15;57.01;100153.88;105113;1255;63949;-53
2023/07/18 04:55:55;;;;;;;9.00;7.10;;;;;;;25.14;56.82;100153.24;105264;1255;60572;-51
2023/07/18 04:58:24;;;;;;;8.20;6.30;;;;;;;25.15;56.39;100148.75;105414;1256;60539;-52
2023/07/18 05:00:54;;;;;;;11.50;6.80;;;;;;;25.17;56.16;100146.36;105301;1261;64900;-52
2023/07/18 05:03:23;;;;;;;9.50;7.10;;;;;;;25.20;56.03;100143.72;105245;1256;61363;-52
2023/07/18 05:05:51;;;;;;;8.30;5.50;;;;;;;25.21;55.85;100141.66;105580;1257;63779;-54
2023/07/18 05:08:18;;;;;;;9.10;6.40;;;;;;;25.23;55.73;100145.38;105237;1259;60490;-54
2023/07/18 05:10:46;;;;;;;9.30;7.00;;;;;;;25.24;55.44;100145.84;105920;1253;60595;-52
2023/07/18 05:13:13;;;;;;;8.40;6.50;;;;;;;25.24;55.39;100143.52;105219;1260;64928;-54
2023/07/18 05:15:42;;;;;;;8.10;6.30;;;;;;;25.22;55.44;100143.54;105450;1256;61454;-52
2023/07/18 05:18:09;;;;;;;8.80;5.70;;;;;;;25.20;55.36;100144.34;105318;1256;63743;-52
2023/07/18 05:20:37;;;;;;;10.50;5.50;;;;;;;25.18;55.43;100151.66;105333;1260;60540;-51
2023/07/18 05:23:05;;;;;;;8.70;5.90;;;;;;;25.19;55.44;100161.00;105239;1256;60573;-57
2023/07/18 05:25:33;;;;;;;10.70;5.90;;;;;;;25.18;55.47;100179.83;105225;1258;64889;-57
2023/07/18 05:28:02;;;;;;;7.10;5.30;;;;;;;25.16;55.48;100189.21;105361;1259;61433;-58
2023/07/18 05:30:29;;;;;;;8.80;5.80;;;;;;;25.12;55.22;100182.63;105220;1257;63731;-62
2023/07/18 05:32:57;;;;;;;7.40;4.80;;;;;;;25.07;55.24;100173.23;105239;1256;60506;-62
2023/07/18 05:35:25;;;;;;;7.90;5.30;;;;;;;25.04;55.30;100173.80;106441;1258;60429;-61
2023/07/18 05:37:52;;;;;;;6.50;4.90;;;;;;;25.03;55.46;100169.26;105298;1256;64965;-58
2023/07/18 05:40:19;;;;;;;7.80;5.30;;;;;;;25.05;55.22;100167.95;105421;1255;61372;-59
2023/07/18 05:42:49;;;;;;;7.90;5.30;;;;;;;25.07;55.34;100163.50;105355;1257;63710;-59
2023/07/18 05:45:16;;;;;;;11.70;5.60;;;;;;;25.09;55.45;100165.64;105349;1256;60533;-62
2023/07/18 05:47:44;;;;;;;6.70;5.10;;;;;;;25.10;55.39;100170.05;105327;1256;60493;-61
2023/07/18 05:50:11;;;;;;;8.00;5.80;;;;;;;25.15;55.35;100170.88;105338;1260;64949;-62
2023/07/18 05:52:39;;;;;;;10.20;6.00;;;;;;;25.19;55.44;100166.55;105327;1261;61066;-61
2023/07/18 05:55:07;;;;;;;7.80;5.10;;;;;;;25.26;55.26;100164.63;105309;1256;63879;-59
2023/07/18 05:57:36;;;;;;;7.00;4.60;;;;;;;25.32;55.02;100164.77;105348;1256;60626;-60
2023/07/18 06:00:07;;;;;;;7.00;4.90;;;;;;;25.35;54.40;100155.46;105188;1255;294170;-61
2023/07/18 06:03:57;;;;;;;6.50;4.80;;;;;;;25.15;54.57;100149.63;102730;1290;601087;-60
2023/07/18 06:06:25;;;;;;;8.10;4.60;;;;;;;25.37;54.39;100147.91;105114;1269;59349;-60
2023/07/18 06:08:53;;;;;;;11.40;4.70;;;;;;;25.47;54.20;100147.06;104683;1270;59300;-60
2023/07/18 06:11:20;;;;;;;8.20;5.10;;;;;;;25.58;54.02;100152.30;104582;1270;63363;-60
2023/07/18 06:13:51;;;;;;;8.10;5.30;;;;;;;25.68;53.87;100162.08;104489;1270;61374;-61
2023/07/18 06:16:18;;;;;;;6.90;5.30;;;;;;;25.75;53.28;100155.90;104317;1271;62560;-59
2023/07/18 06:18:46;;;;;;;6.70;5.10;;;;;;;25.80;52.81;100148.62;104537;1264;204301;-59
2023/07/18 06:21:15;;;;;;;7.20;5.00;;;;;;;25.83;52.99;100133.94;104913;1267;59269;-68
2023/07/18 06:23:44;;;;;;;7.60;5.30;;;;;;;25.86;53.03;100118.08;104859;1264;62045;-69
2023/07/18 06:26:13;;;;;;;6.90;4.90;;;;;;;25.90;53.38;100115.31;104970;1267;61313;-69
2023/07/18 06:28:41;;;;;;;8.70;5.00;;;;;;;25.92;53.84;100123.73;104935;1267;64267;-68
2023/07/18 06:31:10;;;;;;;7.70;4.90;;;;;;;25.94;53.69;100135.15;104934;1267;59680;-70
2023/07/18 06:33:38;;;;;;;7.60;5.40;;;;;;;25.95;53.38;100136.77;104825;1267;59704;-70
2023/07/18 06:36:06;;;;;;;7.00;5.00;;;;;;;25.95;53.13;100133.58;104996;1267;64078;-70
2023/07/18 06:38:34;;;;;;;9.00;5.20;;;;;;;25.96;53.16;100137.71;104932;1270;61385;-69
2023/07/18 06:41:01;;;;;;;7.40;4.80;;;;;;;25.96;52.83;100137.72;104735;1269;63724;-68
2023/07/18 06:43:29;;;;;;;7.80;5.20;;;;;;;25.95;52.42;100142.65;104974;1270;59746;-69
2023/07/18 06:45:56;;;;;;;6.80;4.30;;;;;;;25.97;52.44;100141.02;104948;1264;59637;-70
2023/07/18 06:48:25;;;;;;;9.10;5.50;;;;;;;26.02;52.74;100144.61;104934;1275;64049;-69
2023/07/18 06:50:53;;;;;;;7.60;4.50;;;;;;;26.05;52.34;100151.58;104944;1266;61373;-69
2023/07/18 06:53:21;;;;;;;7.60;5.10;;;;;;;26.08;52.18;100155.90;105195;1267;64412;-69
2023/07/18 06:55:49;;;;;;;7.00;5.00;;;;;;;26.12;52.02;100153.10;104828;1267;59670;-68
2023/07/18 06:58:17;;;;;;;7.80;5.20;;;;;;;26.17;51.58;100146.85;105009;1264;59654;-67
2023/07/18 07:00:45;;;;;;;8.30;5.20;;;;;;;26.24;51.50;100135.86;104943;1266;64632;-69
2023/07/18 07:03:13;;;;;;;6.60;4.60;;;;;;;26.33;51.30;100132.15;104960;1269;61294;-68
2023/07/18 07:05:42;;;;;;;7.40;4.70;;;;;;;26.41;51.51;100127.20;104931;1267;63740;-67
2023/07/18 07:08:10;;;;;;;10.00;5.00;;;;;;;26.50;51.34;100130.08;104938;1268;59745;-67
2023/07/18 07:10:38;;;;;;;7.50;4.00;;;;;;;26.58;50.95;100140.40;104884;1264;59810;-68
2023/07/18 07:13:06;;;;;;;7.40;4.60;;;;;;;26.67;50.41;100137.06;105138;1269;64229;-67
2023/07/18 07:15:34;;;;;;;6.60;4.50;;;;;;;26.73;50.10;100133.43;104863;1267;61317;-68
2023/07/18 07:18:05;;;;;;;7.40;4.20;;;;;;;26.77;50.18;100138.48;104799;1267;63731;-66
2023/07/18 07:20:33;;;;;;;9.20;4.50;;;;;;;26.82;50.49;100135.84;104841;1265;59751;-67
2023/07/18 07:23:01;;;;;;;7.50;4.10;;;;;;;26.89;50.37;100130.20;104748;1267;59227;-68
2023/07/18 07:25:35;;;;;;;6.30;4.40;;;;;;;26.94;50.15;100131.55;104223;1270;64211;-70
2023/07/18 07:28:02;;;;;;;5.90;4.10;;;;;;;26.95;50.15;100132.40;104590;1267;61343;-70
2023/07/18 07:30:29;;;;;;;7.40;4.70;;;;;;;26.96;49.97;100131.98;104822;1267;64221;-67
2023/07/18 07:33:23;;;;;;;7.60;4.80;;;;;;;26.98;50.01;100127.36;104892;1263;59786;-69
2023/07/18 07:35:59;;;;;;;6.80;4.90;;;;;;;27.02;50.09;100124.97;104278;1268;59753;-72
2023/07/18 07:38:29;;;;;;;7.10;4.60;;;;;;;27.10;50.41;100126.59;103762;1264;64152;-72
2023/07/18 07:40:57;;;;;;;6.40;4.50;;;;;;;27.17;50.67;100127.93;104983;1270;61413;-70
2023/07/18 07:43:25;;;;;;;6.90;4.80;;;;;;;27.23;50.79;100126.54;104952;1269;63878;-70
2023/07/18 07:45:52;;;;;;;7.70;4.80;;;;;;;27.26;50.62;100132.04;104878;1266;59645;-70
2023/07/18 07:48:21;;;;;;;8.00;5.10;;;;;;;27.29;50.32;100132.30;105156;1267;59724;-70
2023/07/18 07:51:17;;;;;;;6.90;4.70;;;;;;;27.34;50.47;100139.05;104732;1266;64128;-70
2023/07/18 07:53:49;;;;;;;6.90;4.60;;;;;;;27.38;50.71;100142.80;104107;1263;61459;-68
2023/07/18 07:56:18;;;;;;;6.50;4.30;;;;;;;27.45;50.88;100141.21;104274;1267;62522;-69
2023/07/18 07:58:45;;;;;;;7.70;4.40;;;;;;;27.52;50.86;100139.45;104629;1273;60535;-59
2023/07/18 08:02:43;;;;;;;7.40;4.50;;;;;;;27.50;49.84;100138.17;104124;1273;59814;-61
2023/07/18 08:05:10;;;;;;;8.60;5.10;;;;;;;27.42;49.57;100138.40;104522;1275;64494;-70
2023/07/18 08:07:42;;;;;;;7.70;4.80;;;;;;;27.35;48.95;100139.12;103649;1276;61399;-67
2023/07/18 08:10:10;;;;;;;6.40;4.40;;;;;;;27.29;49.09;100138.93;104336;1273;64903;-66
2023/07/18 08:12:39;;;;;;;6.60;4.10;;;;;;;27.21;49.09;100142.16;105537;1267;72016;-85
2023/07/18 08:15:10;;;;;;;6.40;4.40;;;;;;;27.13;49.45;100145.94;107108;1259;59661;-86
2023/07/18 08:18:03;;;;;;;7.60;5.20;;;;;;;27.10;49.67;100150.48;107453;1259;64110;-86
2023/07/18 08:20:32;;;;;;;5.80;4.30;;;;;;;27.11;49.82;100151.29;107098;1260;61747;-85
2023/07/18 08:23:36;;;;;;;6.80;4.50;;;;;;;27.09;50.24;100155.10;107181;1260;63791;-86
2023/07/18 08:26:04;;;;;;;7.00;4.90;;;;;;;27.07;50.66;100161.16;107089;1260;59640;-85
2023/07/18 08:28:31;;;;;;;7.60;4.70;;;;;;;27.02;50.80;100163.09;106663;1260;59708;-86
2023/07/18 08:31:03;;;;;;;7.20;4.40;;;;;;;26.95;50.96;100161.54;107655;1260;64065;-95
2023/07/18 08:33:31;;;;;;;13.40;5.50;;;;;;;26.88;51.16;100158.16;107620;1258;60450;-93
2023/07/18 08:36:24;;;;;;;10.10;5.80;;;;;;;26.83;51.32;100154.00;106767;1269;64955;-86
2023/07/18 08:39:05;;;;;;;7.80;5.20;;;;;;;26.82;51.34;100154.98;107077;1262;59208;-86
2023/07/18 08:41:51;;;;;;;7.10;5.00;;;;;;;26.82;51.68;100151.38;106909;1258;59705;-87
2023/07/18 08:44:49;;;;;;;6.20;4.90;;;;;;;26.84;51.88;100156.40;107412;1259;62919;-86
2023/07/18 08:47:16;;;;;;;8.10;5.10;;;;;;;26.86;51.90;100165.04;107427;1265;61346;-88
2023/07/18 08:49:44;;;;;;;10.50;4.90;;;;;;;26.84;52.13;100164.13;108083;1260;73619;-68
2023/07/18 08:52:37;;;;;;;9.50;4.90;;;;;;;26.82;52.44;100166.77;105100;1257;59634;-69
2023/07/18 08:55:05;;;;;;;8.00;4.90;;;;;;;26.81;52.84;100169.71;105149;1257;59618;-54
2023/07/18 08:57:33;;;;;;;8.10;5.10;;;;;;;26.79;53.29;100171.25;105158;1263;64080;-54
2023/07/18 09:00:04;;;;;;;10.50;5.50;;;;;;;26.78;53.89;100172.67;104998;1264;60318;-53
2023/07/18 09:02:41;;;;;;;7.40;5.30;;;;;;;26.74;54.34;100167.22;104993;1263;63737;-54
2023/07/18 09:05:30;;;;;;;8.40;5.00;;;;;;;26.62;54.42;100164.41;105067;1265;59730;-54
2023/07/18 09:07:59;;;;;;;7.20;5.50;;;;;;;26.47;55.06;100156.23;105199;1257;59733;-52
2023/07/18 09:10:26;;;;;;;8.30;6.20;;;;;;;26.39;55.65;100159.91;105126;1260;62902;-52
2023/07/18 09:12:55;;;;;;;8.10;5.40;;;;;;;26.29;56.08;100167.52;105037;1260;61434;-50
2023/07/18 09:15:23;;;;;;;7.90;5.50;;;;;;;26.17;56.59;100168.66;105049;1260;63759;-53
2023/07/18 09:17:55;;;;;;;7.10;5.30;;;;;;;26.03;57.12;100166.80;105122;1257;59673;-53
2023/07/18 09:20:24;;;;;;;7.60;5.20;;;;;;;25.91;57.81;100154.23;105211;1262;59657;-52
2023/07/18 09:22:56;;;;;;;7.70;5.00;;;;;;;25.88;58.42;100158.23;104939;1265;64137;-53
2023/07/18 09:25:24;;;;;;;6.60;4.90;;;;;;;25.87;58.66;100169.00;105124;1258;61709;-53
2023/07/18 09:27:53;;;;;;;7.20;5.40;;;;;;;25.81;59.01;100187.21;105197;1260;63867;-54
2023/07/18 09:30:27;;;;;;;8.20;5.40;;;;;;;25.69;59.33;100186.24;105100;1260;59748;-55
2023/07/18 09:36:20;;;;;;;7.30;5.20;;;;;;;25.66;59.18;100176.33;104995;1257;62849;-53
2023/07/18 09:38:48;;;;;;;7.50;4.70;;;;;;;25.56;59.70;100173.85;105178;1258;61469;-54
2023/07/18 09:41:16;;;;;;;6.10;4.30;;;;;;;25.59;59.45;100175.67;105155;1257;62453;-53
2023/07/18 09:43:45;;;;;;;6.90;4.70;;;;;;;25.67;59.22;100177.19;105401;1260;59867;-54
2023/07/18 09:46:14;;;;;;;7.10;5.20;;;;;;;25.74;59.35;100173.41;105067;1258;60744;-52
2023/07/18 09:48:45;;;;;;;7.50;5.50;;;;;;;25.84;59.29;100164.40;105372;1257;62857;-53
2023/07/18 09:51:20;;;;;;;7.90;5.70;;;;;;;25.90;59.15;100167.82;105087;1264;61324;-53
2023/07/18 09:53:51;;;;;;;7.10;5.50;;;;;;;25.78;59.48;100168.33;104827;1260;64200;-52
2023/07/18 09:56:18;;;;;;;7.90;5.70;;;;;;;25.69;59.67;100168.04;104965;1264;59804;-54
2023/07/18 09:58:49;;;;;;;9.20;4.80;;;;;;;25.67;59.59;100173.50;105207;1257;59643;-51
2023/07/18 10:01:20;;;;;;;8.70;5.60;;;;;;;25.67;59.32;100170.61;105122;1264;64172;-52
2023/07/18 10:03:49;;;;;;;6.90;5.20;;;;;;;25.66;59.57;100163.62;105093;1265;61838;-51
2023/07/18 10:06:17;;;;;;;7.20;5.30;;;;;;;25.69;59.17;100168.50;105223;1259;63698;-52
2023/07/18 10:08:45;;;;;;;8.30;6.00;;;;;;;25.73;59.14;100168.73;104882;1258;59584;-52
2023/07/18 10:11:13;;;;;;;8.60;5.70;;;;;;;25.79;59.37;100156.05;105313;1265;59645;-54
2023/07/18 10:14:10;;;;;;;7.30;5.80;;;;;;;25.91;59.37;100151.30;105169;1263;64254;-53
2023/07/18 10:16:40;;;;;;;7.70;5.50;;;;;;;26.08;58.47;100147.57;105132;1264;61291;-50
2023/07/18 10:19:17;;;;;;;10.10;6.10;;;;;;;26.25;58.90;100146.52;105093;1260;63706;-50
2023/07/18 10:21:46;;;;;;;8.20;6.40;;;;;;;26.44;59.19;100146.28;105190;1266;60566;-50
2023/07/18 10:24:24;;;;;;;10.10;6.80;;;;;;;26.61;58.16;100143.34;105278;1262;60396;-53
2023/07/18 10:27:06;;;;;;;10.30;6.70;;;;;;;26.71;57.43;100142.16;105015;1260;64846;-52
2023/07/18 10:29:41;;;;;;;8.30;6.70;;;;;;;26.76;57.39;100140.57;105079;1260;61428;-52
2023/07/18 10:32:11;;;;;;;9.30;6.40;;;;;;;26.82;57.54;100132.48;105018;1260;63726;-53
2023/07/18 10:34:45;;;;;;;7.60;6.40;;;;;;;26.96;57.61;100134.26;104998;1260;60453;-51
2023/07/18 10:37:14;;;;;;;9.00;5.70;;;;;;;27.18;56.78;100132.08;104898;1260;61049;-53
2023/07/18 10:39:44;;;;;;;7.70;6.10;;;;;;;27.42;55.82;100128.17;105095;1265;63653;-54
2023/07/18 10:42:24;;;;;;;8.40;5.80;;;;;;;27.67;54.84;100132.23;105182;1265;60496;-52
2023/07/18 10:44:54;;;;;;;8.10;6.00;;;;;;;27.90;53.46;100130.91;105343;1262;62496;-49
2023/07/18 10:47:21;;;;;;;8.70;6.30;;;;;;;28.07;52.13;100132.23;105177;1259;60454;-53
2023/07/18 10:49:49;;;;;;;8.40;5.40;;;;;;;28.23;50.04;100132.17;105130;1266;60369;-57
2023/07/18 10:52:18;;;;;;;7.20;5.10;;;;;;;28.41;49.27;100126.94;105068;1257;66373;-57
2023/07/18 10:54:49;;;;;;;7.80;6.00;;;;;;;28.63;48.63;100127.51;105069;1257;61706;-51
2023/07/18 10:57:22;;;;;;;7.60;5.70;;;;;;;28.77;47.56;100124.52;104908;1261;63747;-53
2023/07/18 10:59:50;;;;;;;8.50;5.10;;;;;;;28.91;47.69;100124.16;105718;1264;60543;-53
2023/07/18 11:05:51;;;;;;;8.50;5.20;;;;;;;29.23;46.44;100118.17;105101;1264;64982;-51
2023/07/18 11:08:26;;;;;;;8.90;5.20;;;;;;;29.28;45.70;100116.35;105287;1260;61338;-48
2023/07/18 11:10:58;;;;;;;8.30;5.80;;;;;;;29.27;45.68;100123.55;105112;1262;63706;-51
2023/07/18 11:13:39;;;;;;;8.70;5.30;;;;;;;29.28;45.91;100126.92;104989;1262;60463;-52
2023/07/18 11:16:07;;;;;;;10.30;4.90;;;;;;;29.33;45.64;100128.32;105138;1263;61577;-50
2023/07/18 11:18:40;;;;;;;7.20;5.00;;;;;;;29.32;45.08;100128.21;105339;1258;65036;-52
2023/07/18 11:21:08;;;;;;;7.50;5.10;;;;;;;29.29;45.24;100130.39;105209;1260;61381;-53
2023/07/18 11:23:36;;;;;;;7.60;5.70;;;;;;;29.28;45.38;100124.16;104993;1260;63819;-52
2023/07/18 11:26:12;;;;;;;6.70;5.30;;;;;;;29.34;45.47;100124.48;104992;1261;60485;-53
2023/07/18 11:28:41;;;;;;;7.70;4.90;;;;;;;29.41;45.10;100126.36;105245;1265;61164;-50
2023/07/18 11:31:28;;;;;;;7.40;4.90;;;;;;;29.45;45.29;100123.36;105072;1263;64964;-50